地図

経路データ

SID SEASON NUMBER BASIN SUBBASIN NAME ISO_TIME NATURE LAT LON WMO_WIND WMO_PRES WMO_AGENCY TRACK_TYPE DIST2LAND LANDFALL IFLAG USA_AGENCY USA_ATCF_ID USA_LAT USA_LON USA_RECORD USA_STATUS USA_WIND USA_PRES USA_SSHS USA_R34_NE USA_R34_SE USA_R34_SW USA_R34_NW USA_R50_NE USA_R50_SE USA_R50_SW USA_R50_NW USA_R64_NE USA_R64_SE USA_R64_SW USA_R64_NW USA_POCI USA_ROCI USA_RMW USA_EYE TOKYO_LAT TOKYO_LON TOKYO_GRADE TOKYO_WIND TOKYO_PRES TOKYO_R50_DIR TOKYO_R50_LONG TOKYO_R50_SHORT TOKYO_R30_DIR TOKYO_R30_LONG TOKYO_R30_SHORT TOKYO_LAND CMA_LAT CMA_LON CMA_CAT CMA_WIND CMA_PRES HKO_LAT HKO_LON HKO_CAT HKO_WIND HKO_PRES NEWDELHI_LAT NEWDELHI_LON NEWDELHI_GRADE NEWDELHI_WIND NEWDELHI_PRES NEWDELHI_CI NEWDELHI_DP NEWDELHI_POCI REUNION_LAT REUNION_LON REUNION_TYPE REUNION_WIND REUNION_PRES REUNION_TNUM REUNION_CI REUNION_RMW REUNION_R34_NE REUNION_R34_SE REUNION_R34_SW REUNION_R34_NW REUNION_R50_NE REUNION_R50_SE REUNION_R50_SW REUNION_R50_NW REUNION_R64_NE REUNION_R64_SE REUNION_R64_SW REUNION_R64_NW BOM_LAT BOM_LON BOM_TYPE BOM_WIND BOM_PRES BOM_TNUM BOM_CI BOM_RMW BOM_R34_NE BOM_R34_SE BOM_R34_SW BOM_R34_NW BOM_R50_NE BOM_R50_SE BOM_R50_SW BOM_R50_NW BOM_R64_NE BOM_R64_SE BOM_R64_SW BOM_R64_NW BOM_ROCI BOM_POCI BOM_EYE BOM_POS_METHOD BOM_PRES_METHOD NADI_LAT NADI_LON NADI_CAT NADI_WIND NADI_PRES WELLINGTON_LAT WELLINGTON_LON WELLINGTON_WIND WELLINGTON_PRES DS824_LAT DS824_LON DS824_STAGE DS824_WIND DS824_PRES TD9636_LAT TD9636_LON TD9636_STAGE TD9636_WIND TD9636_PRES TD9635_LAT TD9635_LON TD9635_WIND TD9635_PRES TD9635_ROCI NEUMANN_LAT NEUMANN_LON NEUMANN_CLASS NEUMANN_WIND NEUMANN_PRES MLC_LAT MLC_LON MLC_CLASS MLC_WIND MLC_PRES USA_GUST BOM_GUST BOM_GUST_PER REUNION_GUST REUNION_GUST_PER USA_SEAHGT USA_SEARAD_NE USA_SEARAD_SE USA_SEARAD_SW USA_SEARAD_NW STORM_SPEED STORM_DIR
1960346N07148 1960 97 WP MM PHYLLIS 1960-12-11 00:00:00 TS 7.26667 147.533 1006 tokyo main 1053 1053 OOO______OOO__ jtwc_wp WP271960 7.40000 148.300 20 -1 7.00000 146.000 2 1006 0 0 0 7.00000 146.000 1 29 1006 7.40000 148.300 TC 20 7.40000 148.300 1 20 7.40000 148.300 20 1001 540 4 322
1960346N07148 1960 97 WP MM PHYLLIS 1960-12-11 03:00:00 TS 7.41226 147.419 main 1064 1064 PPP______PPP__ WP271960 7.48753 148.005 20 -1 7.26758 146.292 2 1004 0 0 7.26758 146.292 1 29 1004 7.48753 148.005 TC 20 7.47585 147.913 1 22 7.48753 148.005 21 1001 540 4 313
1960346N07148 1960 97 WP MM PHYLLIS 1960-12-11 06:00:00 TS 7.56355 147.212 1002 tokyo main 1086 1086 OOO______OPO__ jtwc_wp WP271960 7.60000 147.600 20 -1 7.50000 146.500 2 1002 0 0 0 7.50000 146.500 1 29 1002 7.60000 147.600 TC 20 7.58132 147.471 1 24 7.60000 147.600 22 1001 540 7 299
1960346N07148 1960 97 WP MM PHYLLIS 1960-12-11 09:00:00 TS 7.73801 146.834 main 1098 1098 PPP______PPP__ WP271960 7.76234 146.997 25 -1 7.69742 146.547 2 1002 0 0 7.69742 146.547 1 29 1002 7.76234 146.997 TC 25 7.74621 146.919 1 26 7.76234 146.997 25 1000 540 10 295
1960346N07148 1960 97 WP MM PHYLLIS 1960-12-11 12:00:00 TS 8.00000 146.267 1002 tokyo main 1132 1132 OOO______OOO__ jtwc_wp WP271960 8.00000 146.200 30 -1 8.00000 146.400 2 1002 0 0 0 8.00000 146.400 1 29 1002 8.00000 146.200 TC 30 8.00000 146.200 1 28 8.00000 146.200 28 1000 540 14 298
1960346N07148 1960 97 WP MM PHYLLIS 1960-12-11 15:00:00 TS 8.40985 145.544 main 1182 1182 PPP______PPP__ WP271960 8.30500 145.252 30 -1 8.59232 146.113 2 1001 0 0 8.59232 146.113 1 29 1001 8.30500 145.252 TC 30 8.35944 145.283 1 29 8.30500 145.252 29 1000 570 18 299
1960346N07148 1960 97 WP MM PHYLLIS 1960-12-11 18:00:00 TS 8.88200 144.672 1000 tokyo main 1250 1250 OOO______OPO__ jtwc_wp WP271960 8.70000 144.200 30 -1 9.20000 145.600 2 1000 0 0 0 9.20000 145.600 1 29 1000 8.70000 144.200 TC 30 8.79198 144.234 1 30 8.70000 144.200 30 1000 600 20 297
1960346N07148 1960 97 WP MM PHYLLIS 1960-12-11 21:00:00 TS 9.32002 143.729 main 1317 1317 PPP______PPP__ WP271960 9.17733 143.150 30 -1 9.56741 144.890 2 1001 0 0 9.56741 144.890 1 33 1000 9.17733 143.150 TC 30 9.25328 143.142 1 31 9.17733 143.150 31 999 600 21 294
1960346N07148 1960 97 WP MM PHYLLIS 1960-12-12 00:00:00 TS 9.73333 142.733 1002 tokyo main 1360 1360 OOO______OOO__ jtwc_wp WP271960 9.70000 142.100 30 -1 9.80000 144.000 2 1002 0 0 0 9.80000 144.000 2 38 1000 9.70000 142.100 TC 30 9.70000 142.100 1 32 9.70000 142.100 32 999 600 21 292
1960346N07148 1960 97 WP MM PHYLLIS 1960-12-12 03:00:00 TS 10.1274 141.726 main 1367 1367 PPP______PPP__ WP271960 10.2451 141.033 32 -1 9.95758 143.015 2 999 0 0 9.96508 143.015 2 38 1000 10.2451 141.033 TC 32 10.1068 141.227 1 34 10.2451 141.033 33 999 570 21 291
1960346N07148 1960 97 WP MM PHYLLIS 1960-12-12 06:00:00 TS 10.4647 140.786 996 tokyo main 1377 1367 OOO______OPO__ jtwc_wp WP271960 10.7000 140.100 35 0 10.1000 142.000 9 996 0 0 0 10.1000 142.000 2 38 1000 10.7000 140.100 TC 35 10.4882 140.418 1 36 10.7000 140.100 35 999 540 18 290
1960346N07148 1960 97 WP MM PHYLLIS 1960-12-12 09:00:00 TS 10.7154 140.040 main 1366 1362 PPP______PPP__ WP271960 10.9518 139.454 37 0 10.3344 141.115 9 998 0 0 10.2769 141.115 2 38 1000 10.9518 139.454 TC 37 10.8257 139.649 1 38 10.9518 139.454 37 998 480 15 288
1960346N07148 1960 97 WP MM PHYLLIS 1960-12-12 12:00:00 TS 10.9167 139.333 1000 tokyo main 1362 1357 OOO______OOO__ jtwc_wp WP271960 11.1000 138.900 40 0 10.6000 140.200 9 1000 0 0 0 10.5000 140.200 2 38 1000 11.1000 138.900 TC 40 11.1000 138.900 2 40 11.1000 138.900 40 998 420 16 285
1960346N07148 1960 97 WP MM PHYLLIS 1960-12-12 15:00:00 TS 11.1166 138.511 main 1360 1280 PPP______PPP__ WP271960 11.2648 138.230 45 0 10.8423 139.137 9 999 0 0 10.7773 139.137 2 43 999 11.2648 138.230 TC 45 11.2854 138.102 2 45 11.2648 138.230 45 997 420 17 283
1960346N07148 1960 97 WP MM PHYLLIS 1960-12-12 18:00:00 TS 11.3016 137.637 998 tokyo main 1269 1188 OOO______OPO__ jtwc_wp WP271960 11.4000 137.500 50 0 11.1000 138.000 9 998 0 0 0 11.1000 138.000 3 48 998 11.4000 137.500 TC 50 11.4098 137.324 2 50 11.4000 137.500 50 997 420 18 282
1960346N07148 1960 97 WP MM PHYLLIS 1960-12-12 21:00:00 TS 11.4909 136.706 main 1177 1095 PPP______PPP__ WP271960 11.5000 136.700 55 0 11.4379 136.776 9 996 0 0 11.5029 136.776 3 53 996 11.5000 136.700 TC 55 11.5043 136.584 2 55 11.5000 136.700 55 996 420 18 281
1960346N07148 1960 97 WP MM PHYLLIS 1960-12-13 00:00:00 TS 11.6500 135.833 995 tokyo main 1087 1013 OOO______OOO__ jtwc_wp WP271960 11.6000 135.900 60 0 11.7000 135.700 9 995 0 0 0 11.8000 135.700 3 58 994 11.6000 135.900 TC 60 11.6000 135.900 2 60 11.6000 135.900 60 995 420 16 279
1960346N07148 1960 97 WP MM PHYLLIS 1960-12-13 03:00:00 TS 11.7407 135.097 main 1013 953 PPP______PPP__ WP271960 11.7425 135.140 65 1 11.7144 134.965 9 990 0 0 11.7719 134.964 3 63 989 11.7425 135.140 TC 65 11.7303 135.232 2 63 11.7425 135.140 65 990 420 13 278
1960346N07148 1960 97 WP MM PHYLLIS 1960-12-13 06:00:00 TS 11.8283 134.521 985 tokyo main 953 911 OOO______OPO__ jtwc_wp WP271960 11.9000 134.500 70 1 11.7000 134.500 9 985 0 0 0 11.7000 134.500 4 68 984 11.9000 134.500 TC 70 11.8698 134.628 2 67 11.9000 134.500 70 985 420 10 284
1960346N07148 1960 97 WP MM PHYLLIS 1960-12-13 09:00:00 TS 11.9780 134.098 main 911 880 PPP______PPP__ WP271960 12.0423 134.032 72 1 11.8623 134.190 9 985 0 0 11.8548 134.190 4 68 983 12.0423 134.032 TC 72 12.0243 134.110 2 71 12.0423 134.032 72 983 420 8 296
1960346N07148 1960 97 WP MM PHYLLIS 1960-12-13 12:00:00 TS 12.1667 133.800 985 tokyo main 882 853 OOO______OOO__ jtwc_wp WP271960 12.2000 133.700 75 1 12.1000 134.000 9 985 0 0 0 12.1000 134.000 4 68 983 12.2000 133.700 TC 75 12.2000 133.700 3 75 12.2000 133.700 75 981 420 7 306
1960346N07148 1960 97 WP MM PHYLLIS 1960-12-13 15:00:00 TS 12.3751 133.533 main 853 836 PPP______PPP__ WP271960 12.3849 133.405 77 1 12.3425 133.792 9 985 0 0 12.3425 133.792 4 68 982 12.3849 133.405 TC 77 12.4109 133.397 3 76 12.3849 133.405 77 980 420 6 314
1960346N07148 1960 97 WP MM PHYLLIS 1960-12-13 18:00:00 TS 12.6070 133.333 985 tokyo main 836 827 OOO______OPO__ jtwc_wp WP271960 12.6000 133.200 80 1 12.6000 133.600 9 985 0 0 0 12.6000 133.600 4 68 981 12.6000 133.200 TC 80 12.6418 133.200 3 77 12.6000 133.200 80 979 420 6 325
1960346N07148 1960 97 WP MM PHYLLIS 1960-12-13 21:00:00 TS 12.8607 133.180 main 833 822 PPP______PPP__ WP271960 12.8500 133.070 80 1 12.8725 133.400 9 982 0 0 12.8650 133.393 4 68 980 12.8500 133.070 TC 80 12.8768 133.078 3 78 12.8500 133.070 80 979 390 6 332
1960346N07148 1960 97 WP MM PHYLLIS 1960-12-14 00:00:00 TS 13.1000 133.067 980 tokyo main 828 817 OOO______OOO__ jtwc_wp WP271960 13.1000 133.000 80 1 13.1000 133.200 9 980 0 0 0 13.1000 133.200 4 68 980 13.1000 133.000 TC 80 13.1000 133.000 4 80 13.1000 133.000 80 979 360 5 333
1960346N07148 1960 97 WP MM PHYLLIS 1960-12-14 03:00:00 TS 13.2877 132.958 main 823 812 PPP______PPP__ WP271960 13.3150 132.942 80 1 13.2075 132.977 9 980 0 0 13.2725 133.027 4 68 980 13.3150 132.942 TC 80 13.3015 132.914 4 80 13.3150 132.942 80 980 390 4 332
1960346N07148 1960 97 WP MM PHYLLIS 1960-12-14 06:00:00 TS 13.4479 132.877 980 tokyo main 814 805 OOO______OPO__ jtwc_wp WP271960 13.5000 132.900 80 1 13.3000 132.800 9 980 0 0 0 13.4000 132.900 4 68 980 13.5000 132.900 TC 80 13.4874 132.862 4 80 13.5000 132.900 80 981 420 4 338
1960346N07148 1960 97 WP MM PHYLLIS 1960-12-14 09:00:00 TS 13.6108 132.824 main 807 807 PPP______PPP__ WP271960 13.6650 132.850 80 1 13.5075 132.727 9 980 0 0 13.5075 132.835 4 68 981 13.6650 132.850 TC 80 13.6546 132.830 4 80 13.6650 132.850 80 980 450 3 344
1960346N07148 1960 97 WP MM PHYLLIS 1960-12-14 12:00:00 TS 13.7500 132.783 980 tokyo main 811 800 OOO______OOO__ jtwc_wp WP271960 13.8000 132.800 80 1 13.7000 132.700 9 980 0 0 0 13.6000 132.800 4 68 982 13.8000 132.800 TC 80 13.8000 132.800 4 80 13.8000 132.800 80 980 480 3 343
1960346N07148 1960 97 WP MM PHYLLIS 1960-12-14 15:00:00 TS 13.8526 132.739 main 803 803 PPP______PPP__ WP271960 13.9075 132.750 77 1 13.7725 132.650 9 980 0 0 13.7075 132.750 4 68 983 13.9075 132.750 TC 77 13.9133 132.782 4 78 13.9075 132.750 77 979 450 2 334
1960346N07148 1960 97 WP MM PHYLLIS 1960-12-14 18:00:00 TS 13.9346 132.693 980 tokyo main 803 803 OOO______OPO__ jtwc_wp WP271960 14.0000 132.700 75 1 13.8000 132.600 9 980 0 0 0 13.8000 132.700 4 68 985 14.0000 132.700 TC 75 14.0073 132.760 4 76 14.0000 132.700 75 979 420 2 328
1960346N07148 1960 97 WP MM PHYLLIS 1960-12-14 21:00:00 TS 13.9913 132.649 main 795 795 PPP______PPP__ WP271960 14.0850 132.672 72 1 13.7975 132.535 9 980 0 0 13.7975 132.635 4 68 986 14.0850 132.672 TC 72 14.0976 132.707 4 74 14.0850 132.672 73 979 420 2 329
1960346N07148 1960 97 WP MM PHYLLIS 1960-12-15 00:00:00 TS 14.1000 132.583 980 tokyo main 798 790 OOO______OOO__ jtwc_wp WP271960 14.2000 132.600 70 1 13.9000 132.500 9 980 0 0 0 13.9000 132.600 4 68 988 14.2000 132.600 TC 70 14.2000 132.600 4 72 14.2000 132.600 72 979 420 4 339
1960346N07148 1960 97 WP MM PHYLLIS 1960-12-15 03:00:00 TS 14.3720 132.501 main 796 790 PPP______PPP__ WP271960 14.4000 132.438 70 1 14.3149 132.602 9 982 0 0 14.3650 132.672 4 68 987 14.4000 132.438 TC 70 14.3519 132.416 4 71 14.4000 132.438 71 981 420 6 337
1960346N07148 1960 97 WP MM PHYLLIS 1960-12-15 06:00:00 TS 14.6358 132.346 985 tokyo main 783 766 OOO______OPO__ jtwc_wp WP271960 14.6000 132.200 70 1 14.7000 132.600 9 985 0 0 0 14.8000 132.700 4 68 987 14.6000 132.200 TC 70 14.5151 132.175 4 71 14.6000 132.200 70 984 420 5 310
1960346N07148 1960 97 WP MM PHYLLIS 1960-12-15 09:00:00 TS 14.7226 132.074 main 766 736 PPP______PPP__ WP271960 14.7225 131.907 70 1 14.7027 132.252 9 985 0 0 14.7949 132.575 4 68 986 14.7225 131.907 TC 70 14.6706 131.897 4 70 14.7225 131.907 70 983 390 6 281
1960346N07148 1960 97 WP MM PHYLLIS 1960-12-15 12:00:00 TS 14.7500 131.750 985 tokyo main 741 711 OOO______OOO__ jtwc_wp WP271960 14.8000 131.600 70 1 14.6000 131.800 9 985 0 0 0 14.7000 132.300 4 68 985 14.8000 131.600 TC 70 14.8000 131.600 4 70 14.8000 131.600 70 982 360 6 280
1960346N07148 1960 97 WP MM PHYLLIS 1960-12-15 15:00:00 TS 14.8206 131.473 main 711 686 PPP______PPP__ WP271960 14.8574 131.357 70 1 14.6348 131.508 9 985 0 0 14.8425 131.903 4 68 984 14.8574 131.357 TC 70 14.8742 131.355 4 70 14.8574 131.357 70 982 360 6 284
1960346N07148 1960 97 WP MM PHYLLIS 1960-12-15 18:00:00 TS 14.8869 131.165 985 tokyo main 686 648 OOO______OPO__ jtwc_wp WP271960 14.9000 131.100 70 1 14.7000 131.200 9 985 0 0 0 15.0000 131.400 4 68 984 14.9000 131.100 TC 70 14.9217 131.089 4 71 14.9000 131.100 70 983 360 7 279
1960346N07148 1960 97 WP MM PHYLLIS 1960-12-15 21:00:00 TS 14.9201 130.799 main 648 615 PPP______PPP__ WP271960 14.9423 130.795 70 1 14.7275 130.772 9 985 0 0 15.0075 130.857 4 68 983 14.9423 130.795 TC 70 14.9584 130.780 4 71 14.9423 130.795 71 982 360 8 276
1960346N07148 1960 97 WP MM PHYLLIS 1960-12-16 00:00:00 TS 14.9667 130.367 985 tokyo main 615 575 OOO______OOO__ jtwc_wp WP271960 15.0000 130.400 70 1 14.8000 130.300 9 985 0 0 0 15.0000 130.300 4 68 983 15.0000 130.400 TC 70 15.0000 130.400 4 72 15.0000 130.400 72 982 360 9 280
1960346N07148 1960 97 WP MM PHYLLIS 1960-12-16 03:00:00 TS 15.0761 129.869 main 575 538 PPP______PPP__ WP271960 15.1001 129.880 75 1 14.9998 129.865 9 982 0 0 15.0923 129.793 4 68 980 15.1001 129.880 TC 75 15.0642 129.914 4 74 15.1001 129.880 75 972 360 10 282
1960346N07148 1960 97 WP MM PHYLLIS 1960-12-16 06:00:00 TS 15.1893 129.327 980 tokyo main 530 489 OOO______OPO__ jtwc_wp WP271960 15.2000 129.300 80 1 15.2000 129.400 9 980 0 0 0 15.2000 129.300 4 68 977 15.2000 129.300 TC 80 15.1356 129.360 4 77 15.2000 129.300 78 962 360 11 279
1960346N07148 1960 97 WP MM PHYLLIS 1960-12-16 09:00:00 TS 15.2514 128.779 main 497 448 PPP______PPP__ WP271960 15.2574 128.750 80 1 15.2651 128.842 9 977 0 0 15.2573 128.807 4 68 976 15.2574 128.750 TC 80 15.2141 128.776 4 79 15.2574 128.750 80 966 330 11 276
1960346N07148 1960 97 WP MM PHYLLIS 1960-12-16 12:00:00 TS 15.3000 128.233 975 tokyo main 438 392 OOO______OOO__ jtwc_wp WP271960 15.3000 128.200 80 1 15.3000 128.300 9 975 0 0 0 15.3000 128.300 4 68 976 15.3000 128.200 TC 80 15.3000 128.200 4 82 15.3000 128.200 82 970 300 10 276
1960346N07148 1960 97 WP MM PHYLLIS 1960-12-16 15:00:00 TS 15.3572 127.705 main 392 344 PPP______PPP__ WP271960 15.3350 127.635 85 2 15.3996 127.915 9 975 0 0 15.3500 127.750 4 72 975 15.3350 127.635 TC 85 15.3886 127.661 4 84 15.3350 127.635 85 974 300 10 277
1960346N07148 1960 97 WP MM PHYLLIS 1960-12-16 18:00:00 TS 15.4308 127.190 975 tokyo main 344 305 OOO______OPO__ jtwc_wp WP271960 15.4000 127.100 90 2 15.5000 127.500 9 975 0 0 0 15.4000 127.200 4 77 975 15.4000 127.100 TC 90 15.4849 127.140 4 86 15.4000 127.100 88 979 300 10 280
1960346N07148 1960 97 WP MM PHYLLIS 1960-12-16 21:00:00 TS 15.5335 126.671 main 305 271 PPP______PPP__ WP271960 15.5424 126.628 90 2 15.5505 126.835 9 975 0 0 15.4350 126.662 4 77 975 15.5424 126.628 TC 90 15.5887 126.649 4 88 15.5424 126.628 89 979 270 10 283
1960346N07148 1960 97 WP MM PHYLLIS 1960-12-17 00:00:00 TS 15.6500 126.200 975 tokyo main 279 249 OOO______OOO__ jtwc_wp WP271960 15.7000 126.200 90 2 15.6000 126.200 9 975 0 0 0 15.5000 126.200 4 77 975 15.7000 126.200 TC 90 15.7000 126.200 4 90 15.7000 126.200 90 980 240 9 284
1960346N07148 1960 97 WP MM PHYLLIS 1960-12-17 03:00:00 TS 15.7441 125.805 main 249 239 PPP______PPP__ WP271960 15.8000 125.777 90 2 15.6547 125.847 9 975 0 0 15.6048 125.870 4 77 974 15.8000 125.777 TC 90 15.8053 125.778 4 90 15.8000 125.777 90 975 270 7 287
1960346N07148 1960 97 WP MM PHYLLIS 1960-12-17 06:00:00 TS 15.8699 125.467 975 tokyo main 248 238 OOO______OPO__ jtwc_wp WP271960 15.9000 125.400 90 2 15.8000 125.600 9 975 0 0 0 15.8000 125.600 4 77 974 15.9000 125.400 TC 90 15.9197 125.402 4 90 15.9000 125.400 90 971 300 7 297
1960346N07148 1960 97 WP MM PHYLLIS 1960-12-17 09:00:00 TS 16.0694 125.151 main 254 250 PPP______PPP__ WP271960 16.0349 125.077 90 2 16.1275 125.300 9 975 0 0 16.1350 125.300 4 82 973 16.0349 125.077 TC 90 16.0492 125.075 4 90 16.0349 125.077 90 971 360 7 307
1960346N07148 1960 97 WP MM PHYLLIS 1960-12-17 12:00:00 TS 16.3000 124.867 975 tokyo main 264 228 OOO______OOO__ jtwc_wp WP271960 16.2000 124.800 90 2 16.5000 125.000 9 975 0 0 0 16.5000 125.000 5 87 972 16.2000 124.800 TC 90 16.2000 124.800 4 90 16.2000 124.800 90 971 420 7 309
1960346N07148 1960 97 WP MM PHYLLIS 1960-12-17 15:00:00 TS 16.5200 124.571 main 228 192 PPP______PPP__ WP271960 16.3925 124.520 90 2 16.7801 124.670 9 975 0 0 16.7801 124.663 5 87 972 16.3925 124.520 TC 90 16.3823 124.534 4 92 16.3925 124.520 91 971 390 7 310
1960346N07148 1960 97 WP MM PHYLLIS 1960-12-17 18:00:00 TS 16.7308 124.337 975 tokyo main 192 180 OOO______OPO__ jtwc_wp WP271960 16.6000 124.300 90 2 17.0000 124.400 9 975 0 0 0 17.0000 124.400 5 87 972 16.6000 124.300 TC 90 16.5847 124.323 4 94 16.6000 124.300 92 972 360 5 319
1960346N07148 1960 97 WP MM PHYLLIS 1960-12-17 21:00:00 TS 16.9283 124.204 main 180 180 PPP______PPP__ WP271960 16.8075 124.162 95 2 17.1724 124.247 9 972 0 0 17.1799 124.312 5 92 971 16.8075 124.162 TC 95 16.7948 124.175 4 96 16.8075 124.162 95 970 330 4 334
1960346N07148 1960 97 WP MM PHYLLIS 1960-12-18 00:00:00 TS 17.1000 124.150 970 tokyo main 181 170 OOO______OOO__ jtwc_wp WP271960 17.0000 124.100 100 3 17.3000 124.200 9 970 0 0 0 17.3000 124.300 5 97 970 17.0000 124.100 TC 100 17.0000 124.100 4 98 17.0000 124.100 98 969 300 3 346
1960346N07148 1960 97 WP MM PHYLLIS 1960-12-18 03:00:00 TS 17.2356 124.120 main 171 171 PPP______PPP__ WP271960 17.1500 124.063 100 3 17.4075 124.227 9 967 0 0 17.3500 124.228 5 101 967 17.1500 124.063 TC 100 17.2064 124.078 4 99 17.1500 124.063 100 966 300 3 6
1960346N07148 1960 97 WP MM PHYLLIS 1960-12-18 06:00:00 TS 17.3670 124.155 965 tokyo main 186 186 OOO______OPO__ jtwc_wp WP271960 17.3000 124.100 100 3 17.5000 124.300 9 965 0 0 0 17.4000 124.200 6 106 965 17.3000 124.100 TC 100 17.4023 124.130 4 101 17.3000 124.100 102 964 300 3 20
1960346N07148 1960 97 WP MM PHYLLIS 1960-12-18 09:00:00 TS 17.5457 124.246 main 189 189 PPP______PPP__ WP271960 17.5150 124.220 102 3 17.6074 124.320 9 967 0 0 17.5500 124.255 6 106 967 17.5150 124.220 TC 102 17.5720 124.241 4 103 17.5150 124.220 103 966 300 4 35
1960346N07148 1960 97 WP MM PHYLLIS 1960-12-18 12:00:00 TS 17.7000 124.400 970 tokyo main 216 216 OOO______OOO__ jtwc_wp WP271960 17.7000 124.400 105 3 17.7000 124.400 9 970 0 0 0 17.7000 124.400 6 106 969 17.7000 124.400 TC 105 17.7000 124.400 4 105 17.7000 124.400 105 969 300 4 56
1960346N07148 1960 97 WP MM PHYLLIS 1960-12-18 15:00:00 TS 17.7736 124.595 main 239 239 PPP______PPP__ WP271960 17.7800 124.585 102 3 17.7650 124.620 9 972 0 0 17.7725 124.628 6 101 971 17.7800 124.585 TC 102 17.7640 124.566 4 100 17.7800 124.585 102 972 240 4 77
1960346N07148 1960 97 WP MM PHYLLIS 1960-12-18 18:00:00 TS 17.7979 124.829 975 tokyo main 259 259 OOO______OPO__ jtwc_wp WP271960 17.8000 124.800 100 3 17.8000 124.900 9 975 0 0 0 17.8000 124.900 5 97 974 17.8000 124.800 TC 100 17.7874 124.775 4 95 17.8000 124.800 100 975 180 5 86
1960346N07148 1960 97 WP MM PHYLLIS 1960-12-18 21:00:00 TS 17.8024 125.075 main 290 290 PPP______PPP__ WP271960 17.8000 125.035 92 2 17.8075 125.165 9 977 0 0 17.8150 125.158 5 92 977 17.8000 125.035 TC 92 17.7921 125.022 4 90 17.8000 125.035 92 977 180 5 90
1960346N07148 1960 97 WP MM PHYLLIS 1960-12-19 00:00:00 TS 17.8000 125.333 980 tokyo main 310 310 OOO______OOO__ jtwc_wp WP271960 17.8000 125.300 85 2 17.8000 125.400 9 980 0 0 0 17.8000 125.400 5 87 980 17.8000 125.300 TC 85 17.8000 125.300 4 85 17.8000 125.300 85 980 180 5 88
1960346N07148 1960 97 WP MM PHYLLIS 1960-12-19 03:00:00 TS 17.8194 125.583 main 340 340 PPP______PPP__ WP271960 17.8425 125.585 80 1 17.7999 125.565 9 982 0 0 17.7424 125.600 5 82 984 17.8425 125.585 TC 80 17.8467 125.576 4 77 17.8425 125.585 80 985 180 5 84
1960346N07148 1960 97 WP MM PHYLLIS 1960-12-19 06:00:00 TS 17.8499 125.847 985 tokyo main 361 361 OOO______OPO__ jtwc_wp WP271960 17.9000 125.900 75 1 17.8000 125.700 9 985 0 0 0 17.7000 125.800 4 77 989 17.9000 125.900 TC 75 17.8996 125.882 4 70 17.9000 125.900 75 990 180 5 82
1960346N07148 1960 97 WP MM PHYLLIS 1960-12-19 09:00:00 TS 17.8883 126.130 main 395 395 PPP______PPP__ WP271960 17.9499 126.228 65 1 17.7925 125.850 9 987 0 0 17.7349 126.027 4 72 990 17.9499 126.228 TC 65 17.9528 126.223 4 62 17.9499 126.228 65 993 150 6 82
1960346N07148 1960 97 WP MM PHYLLIS 1960-12-19 12:00:00 TS 17.9333 126.450 990 tokyo main 436 436 OOO______OOO__ jtwc_wp WP271960 18.0000 126.600 55 0 17.8000 126.000 9 990 0 0 0 17.8000 126.300 4 68 992 18.0000 126.600 TC 55 18.0000 126.600 2 55 18.0000 126.600 55 996 120 7 82
1960346N07148 1960 97 WP MM PHYLLIS 1960-12-19 15:00:00 TS 17.9836 126.815 main 469 469 PPP______PPP__ WP271960 18.0575 127.035 42 0 17.8350 126.143 9 992 0 0 17.8575 126.627 4 58 993 18.0575 127.035 TC 42 18.0366 127.015 2 47 18.0575 127.035 42 997 120 7 83
1960346N07148 1960 97 WP MM PHYLLIS 1960-12-19 18:00:00 TS 18.0145 127.154 995 tokyo main 510 510 OOO______OPO__ jtwc_wp WP271960 18.1000 127.500 30 -1 17.9000 126.300 9 995 0 0 0 17.9000 127.000 3 48 995 18.1000 127.500 TC 30 18.0636 127.460 2 40 18.1000 127.500 30 999 120 6 86
1960346N07148 1960 97 WP MM PHYLLIS 1960-12-19 21:00:00 TS 18.0266 127.428 main 531 531 PPP______PPP__ WP271960 18.1102 127.955 27 -1 18.0150 126.492 9 997 0 0 17.8844 127.325 3 38 997 18.1102 127.955 TC 27 18.0838 127.925 2 32 18.1102 127.955 27 1000 120 5 88
1960346N07148 1960 97 WP MM PHYLLIS 1960-12-20 00:00:00 TS 18.0333 127.633 1000 tokyo main 552 552 OOO______OOO__ jtwc_wp WP271960 18.1000 128.400 25 -1 18.1000 126.700 9 1000 0 0 0 17.9000 127.800 1 29 1000 18.1000 128.400 TC 25 18.1000 128.400 1 25 18.1000 128.400 25 1001 120 3 86
1960346N07148 1960 97 WP MM PHYLLIS 1960-12-20 03:00:00 TS 18.0459 127.711 main 562 562 _PP___________ WP271960 -1 18.0650 126.900 9 1003 0 0 18.0269 128.523 1 29 1003 TC 1 8 84
1960346N07148 1960 97 WP MM PHYLLIS 1960-12-20 06:00:00 TS 18.1143 128.471 1006 tokyo main 641 641 _OO___________ -1 18.0000 127.100 2 1006 0 0 0 18.2000 129.500 1 29 1006 1 18 84
1960346N07148 1960 97 WP MM PHYLLIS 1960-12-20 09:00:00 TS 18.2178 129.565 main 735 735 _PP___________ -1 17.9825 127.300 2 1008 0 0 18.3354 130.698 1 24 1008 1 23 83
1960346N07148 1960 97 WP MM PHYLLIS 1960-12-20 12:00:00 TS 18.3750 130.875 1010 tokyo main 857 857 _OO___________ -1 18.0000 127.500 2 1010 0 0 0 18.5000 132.000 0 19 1010 35 82
1960346N07148 1960 97 WP MM PHYLLIS 1960-12-20 15:00:00 TS 18.7308 133.229 main 1081 1081 __P___________ -1 2 0 0 18.7308 133.229 0 1010 34 79
1960346N07148 1960 97 WP MM PHYLLIS 1960-12-20 18:00:00 TS 19.0000 134.400 main 1209 __O___________ -1 19.0000 134.400 0 1010 23 76

デジタル台風データ・検索

IBTrACS Databaseについて

本データベースは、米国NOAAが公開する1842年以降の世界の熱帯低気圧のベストトラックデータアーカイブInternational Best Track Archive for Climate Stewardship (IBTrACS)を、ウェブで閲覧しやすい形式に変換したものです。

最終更新日:2021-12-01